Time;durP1;ratioP1;P1;durP2;ratioP2;P2;SDS_P1;SDS_P2;PMS_P1;PMS_P2;Temp;Humidity;BMP_temperature;BMP_pressure;BME280_temperature;BME280_humidity;BME280_pressure;Samples;Min_cycle;Max_cycle;Signal;HPM_P1;HPM_P2
2023/10/18 00:02:30;;;;;;;6.73;3.80;;;;;;;9.15;86.04;100279.06;8307921;28;20030;-60
2023/10/18 00:06:32;;;;;;;7.68;4.40;;;;;;;9.17;85.73;100277.06;8312365;28;20044;-58
2023/10/18 00:10:33;;;;;;;10.18;4.85;;;;;;;9.23;85.35;100268.44;8280974;28;20045;-59
2023/10/18 00:14:34;;;;;;;7.40;3.92;;;;;;;9.21;85.51;100265.03;8310594;28;20518;-61
2023/10/18 00:18:35;;;;;;;8.60;5.00;;;;;;;9.25;85.02;100270.03;8233511;28;20053;-61
2023/10/18 00:22:38;;;;;;;9.70;4.07;;;;;;;9.28;84.96;100271.56;8225294;28;20038;-60
2023/10/18 00:26:38;;;;;;;6.80;3.80;;;;;;;9.28;84.60;100268.88;8260019;28;20041;-61
2023/10/18 00:30:39;;;;;;;8.00;3.90;;;;;;;9.30;84.49;100266.91;8260766;28;20046;-61
2023/10/18 00:34:39;;;;;;;5.38;3.72;;;;;;;9.28;84.69;100268.88;8297556;28;20041;-61
2023/10/18 00:38:40;;;;;;;6.72;3.70;;;;;;;9.33;84.16;100269.34;8309613;28;20033;-60
2023/10/18 00:42:41;;;;;;;7.80;3.85;;;;;;;9.32;83.96;100268.47;8313031;28;20380;-60
2023/10/18 00:46:42;;;;;;;10.45;4.05;;;;;;;9.30;83.88;100256.13;8306636;28;20042;-59
2023/10/18 00:50:43;;;;;;;7.10;3.83;;;;;;;9.34;83.41;100262.94;8311181;28;20052;-59
2023/10/18 00:54:45;;;;;;;8.95;3.55;;;;;;;9.35;83.62;100253.84;8306417;28;20169;-58
2023/10/18 00:58:46;;;;;;;7.38;3.25;;;;;;;9.37;83.01;100246.47;8309679;28;20041;-56
2023/10/18 01:02:49;;;;;;;6.07;3.50;;;;;;;9.32;83.29;100241.50;8306545;28;20507;-58
2023/10/18 01:06:50;;;;;;;6.80;3.45;;;;;;;9.39;82.84;100234.53;8310541;28;20033;-59
2023/10/18 01:10:51;;;;;;;7.38;3.60;;;;;;;9.39;82.68;100217.47;8308169;28;20052;-60
2023/10/18 01:14:52;;;;;;;5.15;3.40;;;;;;;9.44;82.71;100216.09;8309826;28;20041;-60
2023/10/18 01:18:55;;;;;;;5.38;2.80;;;;;;;9.47;82.29;100215.81;8309717;28;20037;-60
2023/10/18 01:22:55;;;;;;;7.43;3.08;;;;;;;9.50;81.86;100210.13;8307953;28;20038;-60
2023/10/18 01:26:57;;;;;;;5.93;4.07;;;;;;;9.44;81.92;100199.03;8307266;28;20034;-61
2023/10/18 01:30:57;;;;;;;5.82;3.15;;;;;;;9.41;82.36;100210.97;8307780;28;20565;-59
2023/10/18 01:34:58;;;;;;;6.25;2.80;;;;;;;9.43;82.24;100197.34;8309434;28;20452;-59
2023/10/18 01:38:59;;;;;;;6.35;3.58;;;;;;;9.44;82.36;100188.25;8333141;28;20065;-59
2023/10/18 01:43:00;;;;;;;4.13;2.97;;;;;;;9.41;82.16;100177.72;8307064;28;20095;-59
2023/10/18 01:47:09;;;;;;;3.75;2.83;;;;;;;9.38;82.29;100180.72;8309113;28;20045;-59
2023/10/18 01:51:09;;;;;;;9.63;3.20;;;;;;;9.40;82.49;100173.34;8307254;28;20498;-59
2023/10/18 01:55:12;;;;;;;7.15;3.30;;;;;;;9.47;81.92;100163.69;8306460;28;20434;-59
2023/10/18 01:59:17;;;;;;;4.65;3.03;;;;;;;9.43;82.13;100154.19;8308188;28;20040;-61
2023/10/18 02:03:19;;;;;;;7.93;3.60;;;;;;;9.48;81.53;100154.59;8307927;28;20033;-61
2023/10/18 02:07:21;;;;;;;5.18;2.97;;;;;;;9.49;81.39;100153.63;8310148;28;20175;-61
2023/10/18 02:11:22;;;;;;;4.35;2.60;;;;;;;9.48;81.65;100163.53;8308597;28;20128;-61
2023/10/18 02:15:24;;;;;;;5.75;3.28;;;;;;;9.44;82.30;100161.28;8308444;28;20048;-61
2023/10/18 02:19:26;;;;;;;7.10;3.42;;;;;;;9.37;81.90;100146.66;8310006;28;20061;-62
2023/10/18 02:23:34;;;;;;;6.35;3.63;;;;;;;9.34;82.08;100146.94;8306019;28;20041;-61
2023/10/18 02:27:36;;;;;;;7.13;3.60;;;;;;;9.38;82.05;100156.44;8302630;28;20187;-61
2023/10/18 02:31:36;;;;;;;6.78;3.03;;;;;;;9.30;82.98;100153.63;8306485;28;20069;-61
2023/10/18 02:35:40;;;;;;;4.78;3.13;;;;;;;9.32;82.72;100148.91;8307706;28;20492;-61
2023/10/18 02:39:41;;;;;;;7.45;3.90;;;;;;;9.27;83.09;100149.34;8307352;28;20132;-63
2023/10/18 02:43:45;;;;;;;6.28;3.15;;;;;;;9.20;83.21;100136.56;8305928;28;20065;-61
2023/10/18 02:47:51;;;;;;;9.48;3.50;;;;;;;9.14;83.52;100126.31;8305814;28;20042;-60
2023/10/18 02:51:51;;;;;;;6.78;3.55;;;;;;;9.28;83.14;100134.00;8305837;28;20060;-61
2023/10/18 02:55:55;;;;;;;6.13;3.00;;;;;;;9.26;83.01;100122.50;8308562;28;20407;-60
2023/10/18 02:59:56;;;;;;;5.37;3.37;;;;;;;9.30;83.29;100110.47;8307391;28;20063;-60
2023/10/18 03:03:57;;;;;;;10.13;4.53;;;;;;;9.27;83.27;100116.13;8305824;28;20033;-60
2023/10/18 03:07:58;;;;;;;6.25;3.80;;;;;;;9.26;83.26;100114.41;8308231;28;20060;-60
2023/10/18 03:11:59;;;;;;;7.75;3.70;;;;;;;9.35;82.30;100105.47;8307113;28;20455;-60
2023/10/18 03:16:17;;;;;;;5.15;3.55;;;;;;;9.36;82.31;100099.06;8313358;28;20466;-60
2023/10/18 03:20:22;;;;;;;6.72;4.07;;;;;;;9.41;81.99;100086.88;8314443;28;20037;-60
2023/10/18 03:24:23;;;;;;;6.82;3.47;;;;;;;9.41;82.09;100086.88;8311510;28;20141;-61
2023/10/18 03:28:23;;;;;;;11.82;4.15;;;;;;;9.44;82.19;100074.94;8311344;28;20037;-59
2023/10/18 03:32:25;;;;;;;6.00;3.40;;;;;;;9.42;81.86;100063.44;8306316;28;20042;-60
2023/10/18 03:36:26;;;;;;;9.70;3.92;;;;;;;9.39;82.09;100067.28;8313306;28;20065;-60
2023/10/18 03:40:29;;;;;;;6.03;3.85;;;;;;;9.42;81.70;100055.31;8311828;28;20164;-60
2023/10/18 03:44:32;;;;;;;8.15;3.83;;;;;;;9.36;82.46;100047.81;8312544;28;20165;-60
2023/10/18 03:48:39;;;;;;;6.75;3.38;;;;;;;9.47;82.03;100047.66;8312309;28;20048;-60
2023/10/18 03:52:41;;;;;;;5.55;3.83;;;;;;;9.46;81.67;100051.38;8311555;28;20054;-60
2023/10/18 03:56:43;;;;;;;6.80;3.72;;;;;;;9.42;82.07;100044.53;8309406;28;20073;-60
2023/10/18 04:00:48;;;;;;;6.30;3.93;;;;;;;9.32;82.35;100027.53;8315259;28;20523;-59
2023/10/18 04:04:48;;;;;;;10.55;4.03;;;;;;;9.45;81.92;100026.22;8301815;28;20454;-59
2023/10/18 04:08:50;;;;;;;4.28;3.50;;;;;;;9.35;82.40;100022.72;8314974;28;20144;-59
2023/10/18 04:12:50;;;;;;;7.53;4.20;;;;;;;9.35;82.61;100021.84;8317877;28;20042;-59
2023/10/18 04:16:56;;;;;;;6.78;4.28;;;;;;;9.36;82.40;100010.03;8317391;28;20072;-58
2023/10/18 04:20:59;;;;;;;7.70;4.10;;;;;;;9.39;82.32;100017.84;8304048;28;20064;-58
2023/10/18 04:25:01;;;;;;;6.78;4.10;;;;;;;9.30;82.70;100013.34;8298633;28;20447;-57
2023/10/18 04:29:03;;;;;;;6.65;4.57;;;;;;;9.28;83.11;100005.41;8313557;28;20088;-59
2023/10/18 04:33:36;;;;;;;8.88;4.50;;;;;;;9.21;83.35;100003.44;8310027;28;20491;-60
2023/10/18 04:37:24;;;;;;;7.22;4.30;;;;;;;9.20;83.35;99996.31;8305212;28;20037;-60
2023/10/18 04:41:32;;;;;;;8.90;4.45;;;;;;;9.15;84.02;99994.06;8305860;28;20205;-60
2023/10/18 04:45:32;;;;;;;10.52;4.07;;;;;;;9.18;83.86;99976.75;8310984;28;20560;-60
2023/10/18 04:49:36;;;;;;;7.50;4.10;;;;;;;9.18;84.08;99985.69;8279910;28;20432;-59
2023/10/18 04:53:38;;;;;;;6.80;4.67;;;;;;;9.24;83.28;99978.88;8265856;28;20060;-61
2023/10/18 04:57:38;;;;;;;10.23;4.95;;;;;;;9.31;83.20;99969.19;8302120;28;20281;-59
2023/10/18 05:06:11;;;;;;;6.05;4.00;;;;;;;9.34;82.84;99958.94;8290066;28;20490;-59
2023/10/18 05:10:16;;;;;;;5.10;4.32;;;;;;;9.30;82.88;99959.41;8225506;28;20057;-57
2023/10/18 05:14:35;;;;;;;9.90;4.47;;;;;;;9.32;83.18;99960.09;8262216;28;20073;-58
2023/10/18 05:18:35;;;;;;;7.53;4.95;;;;;;;9.33;83.27;99954.56;8271266;28;20038;-59
2023/10/18 05:22:41;;;;;;;7.38;4.43;;;;;;;9.36;82.90;99948.00;8282065;28;20034;-59
2023/10/18 05:26:44;;;;;;;7.60;4.10;;;;;;;9.37;82.90;99949.72;8227724;28;20058;-58
2023/10/18 05:32:37;;;;;;;7.60;4.93;;;;;;;9.35;82.78;99949.00;8287732;28;20046;-58
2023/10/18 05:35:37;;;;;;;9.55;4.80;;;;;;;9.27;83.03;99948.91;8267306;28;20125;-58
2023/10/18 05:43:42;;;;;;;11.32;4.75;;;;;;;9.26;82.90;99950.75;8402657;27;20389;-60
2023/10/18 05:47:43;;;;;;;8.18;5.18;;;;;;;9.16;83.45;99946.38;8364132;28;20450;-58
2023/10/18 05:56:07;;;;;;;8.20;5.22;;;;;;;9.15;83.38;99923.94;8368789;28;20040;-60
2023/10/18 06:00:17;;;;;;;6.03;4.50;;;;;;;9.16;83.35;99935.59;8363645;28;20538;-60
2023/10/18 06:04:25;;;;;;;9.32;4.60;;;;;;;9.12;83.18;99928.78;8363852;28;20045;-59
2023/10/18 06:08:25;;;;;;;8.70;4.85;;;;;;;9.18;83.34;99922.81;8362013;28;20044;-58
2023/10/18 06:12:27;;;;;;;10.70;5.10;;;;;;;9.08;83.65;99928.22;8365885;28;20499;-57
2023/10/18 06:16:33;;;;;;;10.65;5.00;;;;;;;9.12;83.51;99928.78;8363787;28;20041;-58
2023/10/18 06:20:36;;;;;;;9.05;5.38;;;;;;;9.11;83.86;99921.69;8364828;28;20506;-58
2023/10/18 06:24:37;;;;;;;9.80;5.63;;;;;;;9.09;83.54;99918.31;8372000;27;20048;-58
2023/10/18 06:28:37;;;;;;;8.40;5.18;;;;;;;9.22;83.15;99908.03;8362850;28;20041;-58
2023/10/18 06:32:40;;;;;;;9.55;5.43;;;;;;;9.23;82.92;99909.72;8362902;28;20044;-58
2023/10/18 06:36:41;;;;;;;9.77;5.45;;;;;;;9.28;83.17;99899.34;8363923;28;20064;-59
2023/10/18 06:41:43;;;;;;;9.13;5.35;;;;;;;9.32;82.75;99898.06;8361443;28;20037;-59
2023/10/18 06:45:10;;;;;;;9.30;5.38;;;;;;;9.34;82.72;99901.47;8384068;28;20617;-59
2023/10/18 06:49:10;;;;;;;7.97;5.32;;;;;;;9.36;82.91;99894.06;8364560;28;20041;-59
2023/10/18 06:53:12;;;;;;;12.52;6.20;;;;;;;9.41;82.25;99897.16;8350560;28;20111;-58
2023/10/18 06:57:15;;;;;;;8.93;5.13;;;;;;;9.50;82.26;99896.28;8339427;28;20480;-59
2023/10/18 07:01:30;;;;;;;9.50;5.20;;;;;;;9.58;81.73;99899.09;8340076;28;20116;-59
2023/10/18 07:05:33;;;;;;;10.00;5.13;;;;;;;9.67;81.74;99882.00;8341255;28;20654;-59
2023/10/18 07:09:36;;;;;;;8.18;5.45;;;;;;;9.66;81.18;99885.69;8340306;28;20112;-58
2023/10/18 07:13:39;;;;;;;12.88;6.43;;;;;;;9.73;80.60;99881.41;8336747;28;20133;-58
2023/10/18 07:17:46;;;;;;;10.77;5.68;;;;;;;10.00;80.39;99874.09;8338658;28;20037;-58
2023/10/18 07:21:47;;;;;;;9.15;5.20;;;;;;;10.14;79.08;99864.66;8338873;28;20040;-58
2023/10/18 07:25:48;;;;;;;9.75;5.40;;;;;;;10.35;78.62;99867.91;8339099;28;20068;-58
2023/10/18 07:29:49;;;;;;;10.18;5.18;;;;;;;10.41;78.33;99867.28;8340369;28;20029;-58
2023/10/18 07:33:50;;;;;;;10.50;6.03;;;;;;;10.52;77.84;99858.94;8339127;28;20032;-59
2023/10/18 07:37:51;;;;;;;12.00;5.78;;;;;;;10.55;77.65;99853.19;8338526;28;20045;-59
2023/10/18 07:41:52;;;;;;;14.23;6.70;;;;;;;10.84;77.25;99848.38;8340865;28;20038;-58
2023/10/18 07:45:54;;;;;;;12.10;6.63;;;;;;;10.91;76.14;99844.00;8339907;28;20067;-59
2023/10/18 07:49:58;;;;;;;13.43;6.53;;;;;;;11.06;75.68;99837.00;8338387;28;20077;-60
2023/10/18 07:53:59;;;;;;;13.10;5.75;;;;;;;11.15;75.94;99825.22;8338858;28;20048;-61
2023/10/18 07:58:03;;;;;;;12.27;6.18;;;;;;;11.16;75.45;99836.91;8337024;28;20128;-61
2023/10/18 08:02:42;;;;;;;12.23;6.70;;;;;;;11.28;75.98;99831.03;8337483;28;20044;-61
2023/10/18 08:06:27;;;;;;;11.30;6.13;;;;;;;11.57;75.10;99831.53;8337691;28;20060;-63
2023/10/18 08:10:27;;;;;;;11.02;6.57;;;;;;;11.74;74.68;99821.59;8339063;28;20041;-61
2023/10/18 08:14:28;;;;;;;8.93;6.07;;;;;;;11.95;72.62;99807.63;8338113;28;20033;-61
2023/10/18 08:18:44;;;;;;;11.52;6.70;;;;;;;12.06;72.73;99805.44;8338650;28;20041;-61
2023/10/18 08:22:45;;;;;;;10.27;5.65;;;;;;;11.81;72.40;99811.81;8340700;28;20124;-61
2023/10/18 08:26:46;;;;;;;10.00;5.72;;;;;;;11.98;72.72;99801.88;8340737;28;20049;-61
2023/10/18 08:35:07;;;;;;;10.95;6.30;;;;;;;12.23;71.59;99781.91;8384684;27;20841;-60
2023/10/18 08:39:08;;;;;;;11.50;5.80;;;;;;;12.45;71.46;99775.81;8383001;27;20033;-60
2023/10/18 08:43:23;;;;;;;8.60;5.78;;;;;;;12.61;70.19;99775.78;8383116;27;20085;-60
2023/10/18 08:47:29;;;;;;;12.68;5.47;;;;;;;12.60;70.60;99774.09;8379498;28;20037;-60
2023/10/18 08:51:30;;;;;;;10.18;5.53;;;;;;;12.97;70.04;99768.91;8381590;27;20070;-60
2023/10/18 08:56:33;;;;;;;13.23;5.90;;;;;;;13.13;68.79;99763.47;8377402;28;20044;-60
2023/10/18 08:59:52;;;;;;;14.07;6.45;;;;;;;13.32;68.47;99758.47;8395510;27;20040;-59
2023/10/18 09:03:55;;;;;;;9.85;5.63;;;;;;;13.46;67.71;99754.16;8390434;27;20457;-59
2023/10/18 09:08:03;;;;;;;10.75;6.30;;;;;;;13.48;68.22;99763.00;8382122;27;20036;-59
2023/10/18 09:12:14;;;;;;;8.80;5.93;;;;;;;13.63;67.92;99762.03;8376747;27;20044;-61
2023/10/18 09:16:19;;;;;;;8.88;5.20;;;;;;;14.32;65.69;99761.06;8376740;28;20055;-61
2023/10/18 09:20:26;;;;;;;11.10;6.13;;;;;;;14.40;64.69;99754.72;8382154;27;20051;-59
2023/10/18 09:24:30;;;;;;;11.27;6.03;;;;;;;15.38;61.72;99760.66;8374809;27;20120;-59
2023/10/18 09:28:35;;;;;;;9.82;5.47;;;;;;;15.99;61.10;99734.75;8375319;27;20152;-59
2023/10/18 09:32:36;;;;;;;8.35;5.30;;;;;;;16.59;60.08;99742.47;8377627;27;20036;-60
2023/10/18 09:36:40;;;;;;;6.63;4.95;;;;;;;17.14;58.49;99734.22;8379050;27;20070;-61
2023/10/18 09:40:40;;;;;;;10.23;5.82;;;;;;;17.56;57.67;99725.84;8380058;27;20033;-60
2023/10/18 09:44:41;;;;;;;8.32;4.88;;;;;;;17.36;57.11;99719.44;8368955;27;20562;-60
2023/10/18 09:48:45;;;;;;;7.70;4.80;;;;;;;17.54;57.32;99706.09;8356152;28;20372;-60
2023/10/18 09:52:47;;;;;;;8.35;5.13;;;;;;;18.28;55.72;99701.38;8358565;28;20318;-60
2023/10/18 09:56:53;;;;;;;6.57;4.53;;;;;;;18.05;55.39;99682.63;8354423;28;20052;-60
2023/10/18 10:00:58;;;;;;;10.70;4.95;;;;;;;17.96;55.36;99688.53;8355826;28;20078;-60
2023/10/18 10:05:06;;;;;;;6.65;4.32;;;;;;;17.93;55.50;99676.09;8356874;28;20085;-60
2023/10/18 10:09:14;;;;;;;6.82;4.40;;;;;;;18.42;54.42;99673.81;8355405;28;20038;-60
2023/10/18 10:13:25;;;;;;;8.07;4.07;;;;;;;18.54;54.08;99660.38;8356665;28;20044;-60
2023/10/18 10:17:28;;;;;;;8.75;4.72;;;;;;;17.94;54.57;99658.63;8356433;28;20403;-60
2023/10/18 10:21:29;;;;;;;5.80;4.13;;;;;;;17.97;54.32;99652.75;8356070;28;20061;-60
2023/10/18 10:25:31;;;;;;;9.57;4.22;;;;;;;18.41;53.77;99644.78;8365332;28;20040;-60
2023/10/18 10:29:34;;;;;;;9.38;4.45;;;;;;;17.85;54.41;99624.34;8371967;28;20056;-60
2023/10/18 10:34:02;;;;;;;7.18;4.03;;;;;;;17.69;55.67;99616.53;8370896;28;20393;-60
2023/10/18 10:38:09;;;;;;;7.10;4.05;;;;;;;17.96;54.82;99610.03;8353380;28;20112;-60
2023/10/18 10:42:19;;;;;;;10.90;4.60;;;;;;;17.71;55.81;99608.94;8356741;28;20086;-61
2023/10/18 10:46:35;;;;;;;5.32;4.30;;;;;;;18.02;54.69;99595.50;8355729;28;20045;-61
2023/10/18 10:50:45;;;;;;;7.43;3.58;;;;;;;18.77;54.26;99578.56;8350292;28;20044;-61
2023/10/18 10:54:51;;;;;;;5.40;4.20;;;;;;;18.55;54.33;99564.34;8354781;28;20041;-61
2023/10/18 11:03:31;;;;;;;6.28;4.20;;;;;;;19.42;53.71;99557.19;8385465;27;20478;-60
2023/10/18 11:07:34;;;;;;;5.38;3.47;;;;;;;19.38;52.65;99555.97;8364807;28;20041;-61
2023/10/18 11:11:35;;;;;;;8.10;3.40;;;;;;;19.39;53.58;99545.81;8365014;28;20037;-61
2023/10/18 11:15:36;;;;;;;7.13;3.80;;;;;;;19.11;53.54;99526.16;8365871;28;20147;-60
2023/10/18 11:19:40;;;;;;;6.28;4.05;;;;;;;18.92;53.57;99527.94;8363076;28;20036;-59
2023/10/18 11:23:41;;;;;;;9.88;4.00;;;;;;;18.65;54.68;99507.22;8363730;28;20040;-59
2023/10/18 11:27:42;;;;;;;5.85;3.40;;;;;;;18.93;54.23;99496.75;8361519;28;20038;-59
2023/10/18 11:31:44;;;;;;;3.65;3.08;;;;;;;18.35;55.15;99497.81;8365362;27;20045;-59
2023/10/18 11:35:48;;;;;;;7.28;3.65;;;;;;;17.92;55.92;99490.31;8361507;28;20057;-58
2023/10/18 11:39:49;;;;;;;7.80;3.45;;;;;;;17.98;56.97;99487.59;8359771;28;20376;-61
2023/10/18 11:43:51;;;;;;;7.85;2.90;;;;;;;19.24;54.51;99466.63;8365217;28;20037;-60
2023/10/18 11:47:51;;;;;;;3.80;2.97;;;;;;;19.49;53.00;99440.09;8363753;28;20040;-60
2023/10/18 11:51:53;;;;;;;4.82;2.97;;;;;;;18.56;54.67;99451.03;8366225;28;20087;-57
2023/10/18 11:55:56;;;;;;;4.65;2.80;;;;;;;18.83;54.88;99436.13;8359086;28;20532;-57
2023/10/18 12:00:21;;;;;;;5.28;2.88;;;;;;;19.56;54.11;99430.97;8364008;28;20029;-61
2023/10/18 12:04:27;;;;;;;6.47;2.97;;;;;;;19.61;52.77;99417.44;8360872;28;20049;-60
2023/10/18 12:08:30;;;;;;;4.13;2.65;;;;;;;19.34;53.67;99400.41;8362535;28;20633;-61
2023/10/18 12:12:32;;;;;;;8.07;2.97;;;;;;;19.60;53.58;99399.31;8349631;28;20048;-61
2023/10/18 12:16:33;;;;;;;4.28;2.42;;;;;;;19.75;53.59;99402.53;8341546;28;20399;-61
2023/10/18 12:20:51;;;;;;;8.02;3.28;;;;;;;19.69;54.09;99378.75;8339879;28;20033;-61
2023/10/18 12:24:52;;;;;;;5.72;2.42;;;;;;;19.44;54.09;99352.22;8335768;28;20403;-61
2023/10/18 12:28:55;;;;;;;4.35;2.47;;;;;;;18.57;55.38;99361.53;8337183;28;20036;-61
2023/10/18 12:32:55;;;;;;;5.60;3.20;;;;;;;17.99;56.46;99349.78;8340857;28;20476;-61
2023/10/18 12:36:58;;;;;;;6.32;2.85;;;;;;;17.90;57.10;99361.19;8340470;28;20573;-59
2023/10/18 12:41:00;;;;;;;6.95;3.05;;;;;;;17.71;57.87;99330.09;8339481;28;20037;-60
2023/10/18 12:45:09;;;;;;;6.13;2.90;;;;;;;17.48;58.46;99340.69;8341874;28;20051;-59
2023/10/18 12:49:11;;;;;;;4.57;2.78;;;;;;;17.45;58.88;99325.53;8335864;28;20561;-60
2023/10/18 12:57:32;;;;;;;5.68;2.75;;;;;;;17.41;59.02;99296.09;8334168;28;20543;-59
2023/10/18 13:05:45;;;;;;;4.80;2.70;;;;;;;17.59;58.40;99271.69;8335371;28;20049;-59
2023/10/18 13:09:46;;;;;;;6.90;3.10;;;;;;;17.63;58.63;99250.25;8338898;28;20399;-61
2023/10/18 13:13:46;;;;;;;5.78;2.65;;;;;;;17.72;58.77;99233.41;8342096;28;20083;-61
2023/10/18 13:17:48;;;;;;;4.55;2.22;;;;;;;17.93;58.82;99230.31;8338531;28;20033;-61
2023/10/18 13:21:48;;;;;;;6.18;2.85;;;;;;;18.00;58.16;99225.66;8340502;28;20383;-60
2023/10/18 13:25:51;;;;;;;5.65;2.35;;;;;;;18.18;58.39;99241.31;8331822;28;20045;-61
2023/10/18 13:30:53;;;;;;;7.53;2.70;;;;;;;18.17;57.65;99232.28;8339853;28;20494;-61
2023/10/18 13:34:19;;;;;;;5.32;2.47;;;;;;;17.90;58.13;99219.81;8334635;28;20034;-61
2023/10/18 13:38:23;;;;;;;5.60;2.22;;;;;;;17.97;58.81;99204.22;8330241;28;20457;-62
2023/10/18 13:42:24;;;;;;;3.50;2.67;;;;;;;17.95;59.04;99195.38;8333808;28;20384;-59
2023/10/18 13:46:24;;;;;;;4.25;2.83;;;;;;;17.67;58.79;99189.47;8338642;28;20056;-61
2023/10/18 13:50:26;;;;;;;4.53;2.35;;;;;;;17.63;59.13;99184.66;8338446;28;20106;-57
2023/10/18 13:54:28;;;;;;;4.70;2.78;;;;;;;17.57;60.16;99170.78;8335675;28;20047;-58
2023/10/18 13:58:30;;;;;;;5.38;2.33;;;;;;;17.51;60.28;99163.47;8337234;28;20037;-57
2023/10/18 14:02:31;;;;;;;4.35;2.40;;;;;;;17.56;60.58;99157.34;8341356;28;20060;-60
2023/10/18 14:06:33;;;;;;;5.82;2.35;;;;;;;17.50;60.54;99147.28;8337302;28;20045;-60
2023/10/18 14:10:40;;;;;;;2.95;2.08;;;;;;;17.45;60.84;99142.47;8335819;28;20037;-60
2023/10/18 14:14:41;;;;;;;3.60;2.33;;;;;;;17.46;60.84;99135.13;8338414;28;20546;-60
2023/10/18 14:18:45;;;;;;;4.97;2.42;;;;;;;17.43;61.28;99135.56;8336680;28;20064;-60
2023/10/18 14:22:47;;;;;;;9.07;3.95;;;;;;;17.32;61.29;99117.91;8332309;28;20040;-60
2023/10/18 14:26:47;;;;;;;6.32;3.10;;;;;;;17.25;61.68;99113.53;8337200;28;20052;-60
2023/10/18 14:30:48;;;;;;;4.20;2.65;;;;;;;17.20;61.61;99108.72;8337175;28;20504;-60
2023/10/18 14:34:49;;;;;;;7.38;2.70;;;;;;;17.21;61.70;99099.50;8336393;28;20044;-61
2023/10/18 14:38:50;;;;;;;6.35;2.95;;;;;;;17.21;63.09;99093.19;8331480;28;20389;-60
2023/10/18 14:42:51;;;;;;;6.93;3.10;;;;;;;17.25;62.62;99089.81;8336815;28;20033;-58
2023/10/18 14:46:52;;;;;;;7.80;2.75;;;;;;;17.21;62.85;99082.25;8334260;28;20456;-59
2023/10/18 14:50:53;;;;;;;6.93;2.83;;;;;;;17.22;63.07;99067.53;8333690;28;20045;-60
2023/10/18 14:54:53;;;;;;;5.80;2.15;;;;;;;17.29;63.32;99073.78;8327618;28;20046;-60
2023/10/18 14:58:54;;;;;;;5.90;2.60;;;;;;;17.31;63.48;99060.75;8358055;28;20422;-60
2023/10/18 15:02:55;;;;;;;3.92;2.05;;;;;;;17.39;62.02;99055.06;8340643;28;20620;-60
2023/10/18 15:06:55;;;;;;;4.20;2.17;;;;;;;17.60;61.52;99052.00;8335298;28;20423;-61
2023/10/18 15:10:56;;;;;;;4.10;2.30;;;;;;;17.45;60.61;99048.75;8330302;28;20577;-60
2023/10/18 15:14:56;;;;;;;4.28;2.10;;;;;;;17.59;60.69;99053.03;8328664;28;20048;-60
2023/10/18 15:19:03;;;;;;;3.25;1.90;;;;;;;17.44;61.05;99038.84;8282233;28;20041;-60
2023/10/18 15:23:06;;;;;;;6.15;2.22;;;;;;;17.39;61.06;99052.31;8319378;28;20048;-60
2023/10/18 15:27:12;;;;;;;4.00;2.13;;;;;;;17.25;61.18;99039.78;8328091;28;20041;-60
2023/10/18 15:31:14;;;;;;;7.28;2.60;;;;;;;17.29;60.85;99041.88;8329793;28;20033;-58
2023/10/18 15:35:18;;;;;;;3.70;2.40;;;;;;;17.35;60.88;99045.59;8328596;28;20439;-60
2023/10/18 15:39:19;;;;;;;5.75;2.13;;;;;;;17.18;61.12;99018.00;8332505;28;20037;-59
2023/10/18 15:43:21;;;;;;;6.20;2.40;;;;;;;17.15;61.22;99017.59;8321226;28;20033;-59
2023/10/18 15:47:23;;;;;;;2.95;2.33;;;;;;;17.05;61.28;99014.50;8336565;28;20033;-60
2023/10/18 15:51:24;;;;;;;6.80;3.13;;;;;;;16.99;61.78;99016.19;8336325;28;20574;-60
2023/10/18 15:55:24;;;;;;;7.78;2.88;;;;;;;16.96;61.49;99008.44;8327250;28;20431;-59
2023/10/18 15:59:25;;;;;;;8.90;3.03;;;;;;;16.93;61.14;98975.28;8332006;28;20049;-61
2023/10/18 16:03:25;;;;;;;5.55;2.63;;;;;;;16.92;61.65;98976.31;8337503;28;20045;-59
2023/10/18 16:07:26;;;;;;;5.30;2.60;;;;;;;16.79;61.71;98979.13;8339587;28;20423;-60
2023/10/18 16:11:27;;;;;;;7.57;3.45;;;;;;;16.72;62.13;98973.72;8334873;28;20037;-58
2023/10/18 16:15:34;;;;;;;4.68;2.80;;;;;;;16.71;62.23;98939.28;8335752;28;20042;-59
2023/10/18 16:19:35;;;;;;;5.53;2.60;;;;;;;16.70;62.40;98970.38;8337169;28;20420;-61
2023/10/18 16:23:40;;;;;;;5.55;2.35;;;;;;;16.65;62.39;98952.97;8334579;28;20065;-60
2023/10/18 16:27:40;;;;;;;8.68;2.90;;;;;;;16.65;62.03;98950.25;8331749;28;20038;-61
2023/10/18 16:31:42;;;;;;;5.00;2.45;;;;;;;16.68;62.05;98956.09;8335438;28;20397;-61
2023/10/18 16:35:43;;;;;;;4.80;2.80;;;;;;;16.60;62.29;98958.25;8335416;28;20120;-59
2023/10/18 16:39:43;;;;;;;5.35;2.55;;;;;;;16.57;62.71;98961.41;8337589;28;20029;-59
2023/10/18 16:43:43;;;;;;;5.72;2.63;;;;;;;16.51;62.58;98965.84;8334664;28;20380;-61
2023/10/18 16:47:44;;;;;;;4.72;2.60;;;;;;;16.65;62.35;98958.44;8331209;28;20120;-61
2023/10/18 16:51:45;;;;;;;4.07;2.60;;;;;;;16.56;62.75;98951.56;8348874;28;20056;-66
2023/10/18 16:55:55;;;;;;;4.57;2.50;;;;;;;16.52;62.74;98950.28;8334914;28;20055;-62
2023/10/18 16:59:56;;;;;;;5.00;2.15;;;;;;;16.55;62.77;98949.84;8336422;28;20048;-61
2023/10/18 17:03:56;;;;;;;7.88;3.05;;;;;;;16.64;62.49;98943.09;8339929;28;20044;-61
2023/10/18 17:07:56;;;;;;;3.80;2.42;;;;;;;16.33;63.61;98946.56;8335658;28;20033;-60
2023/10/18 17:11:57;;;;;;;4.40;2.28;;;;;;;16.36;63.62;98945.28;8338888;28;20399;-59
2023/10/18 17:15:58;;;;;;;4.03;2.20;;;;;;;16.31;63.77;98935.03;8336139;28;20061;-61
2023/10/18 17:19:59;;;;;;;8.63;2.80;;;;;;;16.26;63.89;98931.28;8336651;28;20388;-61
2023/10/18 17:24:01;;;;;;;4.80;2.80;;;;;;;16.16;64.20;98928.19;8334849;28;20765;-61
2023/10/18 17:28:02;;;;;;;5.70;3.20;;;;;;;16.19;64.57;98916.84;8325751;28;20038;-60
2023/10/18 17:32:06;;;;;;;6.80;3.22;;;;;;;16.17;64.51;98913.50;8341464;28;20037;-65
2023/10/18 17:36:08;;;;;;;5.27;3.07;;;;;;;16.20;64.44;98896.69;8325673;28;20037;-65
2023/10/18 17:40:12;;;;;;;5.45;2.83;;;;;;;16.24;64.12;98870.66;8333025;28;20045;-65
2023/10/18 17:44:13;;;;;;;5.80;3.28;;;;;;;16.26;63.92;98868.56;8320044;28;20029;-59
2023/10/18 17:48:15;;;;;;;5.53;3.13;;;;;;;16.29;63.71;98876.31;8331008;28;20091;-59
2023/10/18 17:52:15;;;;;;;9.15;3.83;;;;;;;16.17;64.02;98870.72;8335397;28;20379;-58
2023/10/18 17:56:16;;;;;;;7.00;3.05;;;;;;;16.18;63.97;98883.28;8335206;28;20171;-60
2023/10/18 18:00:24;;;;;;;4.47;2.50;;;;;;;16.27;63.97;98892.03;8336055;28;20455;-59
2023/10/18 18:04:25;;;;;;;4.80;2.75;;;;;;;16.28;63.95;98869.19;8337331;28;20089;-63
2023/10/18 18:08:26;;;;;;;6.20;3.08;;;;;;;16.14;64.67;98854.78;8336905;28;20088;-63
2023/10/18 18:12:27;;;;;;;8.13;3.92;;;;;;;16.17;64.37;98854.34;8335724;28;20068;-62
2023/10/18 18:16:28;;;;;;;8.40;2.92;;;;;;;16.02;64.92;98851.06;8338748;28;20041;-60
2023/10/18 18:20:29;;;;;;;5.65;2.50;;;;;;;15.99;64.82;98839.75;8337875;28;20104;-59
2023/10/18 18:24:31;;;;;;;5.63;3.35;;;;;;;15.91;65.44;98842.69;8331353;28;20045;-60
2023/10/18 18:28:32;;;;;;;6.25;2.80;;;;;;;15.95;65.41;98827.59;8338244;28;20041;-59
2023/10/18 18:32:35;;;;;;;4.32;2.88;;;;;;;15.92;65.60;98833.50;8339152;28;20041;-58
2023/10/18 18:36:37;;;;;;;5.60;2.80;;;;;;;15.96;65.87;98823.81;8333627;28;20064;-58
2023/10/18 18:40:37;;;;;;;5.45;3.00;;;;;;;15.98;65.62;98821.72;8337096;28;20041;-58
2023/10/18 18:44:38;;;;;;;4.95;2.85;;;;;;;16.09;65.27;98818.28;8335861;28;20529;-60
2023/10/18 18:48:38;;;;;;;6.03;2.92;;;;;;;16.09;65.33;98801.94;8334961;28;20092;-61
2023/10/18 18:52:41;;;;;;;6.13;3.15;;;;;;;16.06;65.26;98799.66;8334699;28;20033;-61
2023/10/18 18:56:41;;;;;;;4.80;2.63;;;;;;;16.03;65.31;98803.66;8333663;28;20087;-61
2023/10/18 19:00:42;;;;;;;3.85;2.58;;;;;;;16.01;65.95;98794.03;8337154;28;20063;-62
2023/10/18 19:04:43;;;;;;;5.05;2.70;;;;;;;15.93;67.08;98799.72;8348244;28;20044;-61
2023/10/18 19:08:43;;;;;;;5.10;2.88;;;;;;;15.77;68.16;98802.94;8341795;28;20048;-60
2023/10/18 19:12:46;;;;;;;7.05;2.65;;;;;;;15.52;70.33;98802.78;8342345;28;20091;-63
2023/10/18 19:16:46;;;;;;;7.78;3.35;;;;;;;15.16;72.92;98811.41;8344751;28;20040;-63
2023/10/18 19:20:47;;;;;;;5.43;2.90;;;;;;;15.09;74.23;98815.19;8333691;28;20128;-63
2023/10/18 19:24:47;;;;;;;9.75;3.35;;;;;;;14.85;76.09;98800.34;8332955;28;20479;-64
2023/10/18 19:28:48;;;;;;;8.90;3.08;;;;;;;14.69;78.97;98800.78;8334762;28;20049;-62
2023/10/18 19:32:48;;;;;;;7.28;3.53;;;;;;;14.42;81.26;98785.47;8338937;28;20128;-61
2023/10/18 19:36:50;;;;;;;7.57;3.78;;;;;;;14.19;83.99;98771.41;8342478;28;20444;-62